Irvington, VA (22480)

7:44 AM EST on December 07, 2016 (GMT -0500)
Sanders Cove | | Change Station

Elev 20 ft 37.64 °N, 76.42 °W | Updated 7 seconds ago

Overcast
Overcast
44.8 °F
Feels Like 42 °F
N
5.8
Wind Variable Wind from NNW

Today
High -- | Low -- °F
--% Chance of Precip.
Yesterday
High -- | Low -- °F
Precip. -- in
Pressure 30.02 in
Visibility 10.0 miles
Clouds Overcast 600 ft
Windchill 42 °F
Dew Point 44 °F
Humidity 97%
Rainfall 0.00 in
Snow Depth Not available.
7:07 AM 4:46 PM
First Quarter, 52% visible
METAR KFYJ 071235Z AUTO 29005KT 10SM OVC006 07/06 A3002 RMK AO2 T00670060
Pressure 30.02 in
Visibility 10.0 miles
Clouds Overcast 600 ft
Windchill 42 °F
Dew Point 44 °F
Humidity 97%
Rainfall 0.00 in
Snow Depth Not available.
7:07 AM 4:46 PM
First Quarter, 52% visible
METAR KFYJ 071235Z AUTO 29005KT 10SM OVC006 07/06 A3002 RMK AO2 T00670060

10-Day Weather Forecast

Almanac

Astronomy

Dec. 07, 2016 Rise Set
Actual Time
Civil Twilight
Nautical Twilight
Astronomical Twilight
Moon
Length of Visible Light
Length of Day
Tomorrow will be .
, % of the Moon is Illuminated

Today's Extremes

State Highs State Lows

Community

WunderPhotos

Upload Photos

1,956,112 photos uploaded!

WunderBlog® & News

Nearby

Air Quality

  Air Quality AQ Index Pollutant
Not available.

Snow Depth

Station Depth Elevation

Earthquake Activity

City Distance Mag. Time & Date
Minimum magnitude displayed is 2.5.

Coastal Water Temperatures

Place Temperature

Stations

Nearby Weather Stations

Station Location Temp. Windchill Dew Point Humidity Wind Precip. Elev Updated Type
                   

Watches & Warnings

There are currently no watches in effect.